Flight Track Log - Related Links

Times and Time Zones

All times are in EDT time to prevent confusion due to time zone crossing. See the ASQ4661 flight status page for this flight to view local times or setup timezone preferences in your user account.

Time Position Orientation Groundspeed Altitude Reporting Facility
EDT Latitude Longitude Course Direction KTS MPH feet Rate Location/Type
Wed 02:49:23 PM 29.9594 -95.3414 108° East 165 190 700  Level Houston Center
Wed 02:50:37 PM 29.9403 -95.2714 108° East 219 252 3,000 1,964 Climbing Houston Center
Wed 02:51:13 PM 29.9331 -95.2347 103° East 217 250 4,300 2,327 Climbing Houston Center
Wed 02:52:15 PM 29.9253 -95.1500 96° East 260 299 6,800 2,400 Climbing Houston Center
Wed 02:53:18 PM 29.9194 -95.0628 94° East 270 311 9,300 1,872 Climbing Houston Center
Wed 02:54:20 PM 29.9103 -94.9439 95° East 314 361 10,700 1,355 Climbing Houston Center
Wed 02:55:22 PM 29.9017 -94.8253 95° East 363 418 12,100 1,645 Climbing Houston Center
Wed 02:56:24 PM 29.8928 -94.7050 95° East 375 432 14,100 1,790 Climbing Houston Center
Wed 02:57:26 PM 29.8822 -94.5819 96° East 382 440 15,800 1,839 Climbing Houston Center
Wed 02:58:28 PM 29.8733 -94.4586 95° East 385 443 17,900 1,984 Climbing Houston Center
Wed 02:59:30 PM 29.8633 -94.3397 96° East 375 432 19,900 1,488 Climbing Houston Center
Wed 03:00:33 PM 29.8583 -94.2161 93° East 385 443 21,000 1,008 Climbing Houston Center
Wed 03:01:35 PM 29.8547 -94.0761 92° East 409 471 22,000 1,065 Climbing Houston Center
Wed 03:02:37 PM 29.8672 -93.9142 85° East 424 488 23,200 1,065 Climbing Houston Center
Wed 03:03:39 PM 29.8817 -93.7764 83° East 434 499 24,200 968 Climbing Houston Center
Wed 03:04:41 PM 29.8969 -93.6381 83° East 440 506 25,200 968 Climbing Houston Center
Wed 03:05:43 PM 29.9094 -93.4989 84° East 441 507 26,200 968 Climbing Houston Center
Wed 03:06:45 PM 29.9250 -93.3586 83° East 446 513 27,200 1,056 Climbing Houston Center
Wed 03:07:48 PM 29.9414 -93.1906 84° East 446 513 28,400 1,056 Climbing Houston Center
Wed 03:08:50 PM 29.9553 -93.0492 83° East 448 516 29,400 968 Climbing Houston Center
Wed 03:09:52 PM 29.9697 -92.9111 83° East 441 507 30,400 968 Climbing Houston Center
Wed 03:10:54 PM 29.9808 -92.7700 85° East 444 511 31,400 968 Climbing Houston Center
Wed 03:11:56 PM 29.9933 -92.6275 84° East 448 516 32,400 1,065 Climbing Houston Center
Wed 03:12:58 PM 30.0061 -92.4567 85° East 449 517 33,600 1,065 Climbing Houston Center
Wed 03:14:00 PM 30.0178 -92.3147 85° East 446 513 34,600 677 Climbing Houston Center
Wed 03:15:02 PM 30.0289 -92.1728 85° East 445 512 35,000 192 Climbing Houston Center
Wed 03:16:05 PM 30.0400 -92.0264 85° East 458 527 35,000  Level Houston Center
Wed 03:17:07 PM 30.0500 -91.8747 86° East 473 544 35,000  Level Houston Center
Wed 03:18:09 PM 30.0639 -91.7044 85° East 481 554 35,000  Level Houston Center
Wed 03:19:11 PM 30.0747 -91.5525 85° East 478 550 35,000  Level Houston Center
Wed 03:20:13 PM 30.0850 -91.4008 85° East 475 547 35,000  Level Houston Center
Wed 03:21:15 PM 30.0994 -91.2181 85° East 477 549 35,000  Level Houston Center
Wed 03:22:17 PM 30.1097 -91.0667 85° East 476 548 35,000  Level Houston Center
Wed 03:23:20 PM 30.1242 -90.9144 84° East 477 549 35,000 -48 Level Houston Center
Wed 03:24:22 PM 30.1617 -90.7689 73° East 475 547 34,900  Descending Houston Center
Wed 03:25:24 PM 30.1961 -90.6267 74° East 466 536 35,000 48 Climbing Houston Center
Wed 03:26:26 PM 30.2311 -90.4869 74° East 457 526 35,000  Level Houston Center
Wed 03:27:28 PM 30.2725 -90.3119 75° East 466 536 35,000  Level Houston Center
Wed 03:28:30 PM 30.3078 -90.1647 74° East 474 545 35,000  Level Houston Center
Wed 03:29:33 PM 30.3433 -90.0158 74° East 477 549 35,000  Level Houston Center
Wed 03:30:35 PM 30.3778 -89.8672 75° East 483 556 35,000  Level Houston Center
Wed 03:31:37 PM 30.4150 -89.7167 74° East 486 559 35,000  Level Houston Center
Wed 03:32:39 PM 30.4539 -89.5519 75° East 484 557 35,000  Level Houston Center
Wed 03:33:41 PM 30.4881 -89.4039 75° East 477 549 35,000  Level Houston Center
Wed 03:34:43 PM 30.5225 -89.2544 75° East 480 552 35,000  Level Houston Center
Wed 03:35:45 PM 30.5628 -89.0736 75° East 481 554 35,000  Level Houston Center
Wed 03:36:48 PM 30.5914 -88.9406 76° East 479 551 35,000  Level Houston Center
Wed 03:37:50 PM 30.6258 -88.7917 75° East 479 551 35,000  Level Houston Center
Wed 03:38:52 PM 30.6664 -88.6153 75° East 476 548 35,000  Level Houston Center
Wed 03:39:54 PM 30.7000 -88.4675 75° East 476 548 35,000  Level Houston Center
Wed 03:40:56 PM 30.7275 -88.3297 77° East 477 549 35,000  Level Houston Center
Wed 03:41:58 PM 30.7381 -88.1414 86° East 486 559 35,000  Level Houston Center
Wed 03:43:00 PM 30.7506 -87.9833 85° East 489 563 35,000  Level Houston Center
Wed 03:44:03 PM 30.7608 -87.8239 86° East 493 567 35,000  Level Houston Center
Wed 03:45:05 PM 30.7700 -87.6606 86° East 494 568 35,000  Level Houston Center
Wed 03:46:07 PM 30.7797 -87.5028 86° East 491 565 35,000  Level Houston Center
Wed 03:47:15 PM 30.7917 -87.2983 86° East 498 573 35,000  Level Jacksonville Center
Wed 03:48:15 PM 30.8011 -87.1392 86° East 493 567 35,000  Level Jacksonville Center
Wed 03:49:15 PM 30.8106 -86.9800 86° East 493 567 35,000  Level Jacksonville Center
Wed 03:50:15 PM 30.8217 -86.8208 85° East 493 567 35,000  Level Jacksonville Center
Wed 03:51:15 PM 30.8264 -86.6664 88° East 493 567 35,000  Level Jacksonville Center
Wed 03:52:15 PM 30.8228 -86.5089 91° East 488 562 35,000  Level Jacksonville Center
Wed 03:53:15 PM 30.8167 -86.3539 93° East 482 555 35,000  Level Jacksonville Center
Wed 03:54:15 PM 30.8144 -86.1967 91° East 482 555 35,000  Level Jacksonville Center
Wed 03:55:15 PM 30.8103 -86.0392 92° East 482 555 35,000  Level Jacksonville Center
Wed 03:56:14 PM 30.8100 -85.8772 90° East 482 555 35,000  Level Jacksonville Center
Wed 03:57:14 PM 30.8053 -85.7175 92° East 488 562 35,000  Level Jacksonville Center
Wed 03:58:15 PM 30.8025 -85.5531 91° East 498 573 35,000  Level Jacksonville Center
Wed 03:59:15 PM 30.7994 -85.3956 91° East 498 573 35,000  Level Jacksonville Center
Wed 04:00:15 PM 30.7942 -85.2336 92° East 498 573 35,000  Level Jacksonville Center
Wed 04:01:15 PM 30.7739 -85.0783 99° East 498 573 35,000  Level Jacksonville Center
Wed 04:02:15 PM 30.7322 -84.9419 110° East 448 516 35,000  Level Jacksonville Center
Wed 04:03:15 PM 30.7097 -84.7844 99° East 469 540 35,000  Level Jacksonville Center
Wed 04:04:15 PM 30.6931 -84.6247 97° East 486 559 35,000  Level Jacksonville Center
Wed 04:05:14 PM 30.6725 -84.4481 98° East 500 575 35,000  Level Jacksonville Center
Wed 04:06:15 PM 30.6536 -84.2883 98° East 505 581 35,000  Level Jacksonville Center
Wed 04:07:14 PM 30.6028 -84.1403 112° Southeast 493 567 35,000  Level Jacksonville Center
Wed 04:08:14 PM 30.4950 -84.0522 145° Southeast 453 521 35,000  Level Jacksonville Center
Wed 04:09:15 PM 30.3683 -83.9928 158° South 453 521 35,000  Level Jacksonville Center
Wed 04:10:15 PM 30.2456 -83.9361 158° South 464 534 35,000  Level Jacksonville Center
Wed 04:11:14 PM 30.1228 -83.8772 157° South 475 547 35,000  Level Jacksonville Center
Wed 04:12:15 PM 30.0000 -83.8231 159° South 475 547 35,000 -50 Level Jacksonville Center
Wed 04:13:15 PM 29.8753 -83.7669 159° South 475 547 34,900  Descending Jacksonville Center
Wed 04:14:15 PM 29.7567 -83.7083 157° South 470 541 35,000 50 Climbing Jacksonville Center
Wed 04:15:15 PM 29.6400 -83.6547 158° South 465 535 35,000 -450 Level Jacksonville Center
Wed 04:16:15 PM 29.5172 -83.6014 159° South 465 535 34,100 -667 Descending Jacksonville Center
Wed 04:18:15 PM 29.2861 -83.4925 158° South 459 528 33,000 -367 Descending Jacksonville Center
Wed 04:19:15 PM 29.1778 -83.4419 158° South 454 522 33,000  Level Jacksonville Center
Wed 04:20:15 PM 29.0589 -83.3892 159° South 454 522 33,000  Level Jacksonville Center
Wed 04:21:15 PM 28.9400 -83.3361 159° South 454 522 33,000  Level Jacksonville Center
Wed 04:22:15 PM 28.8192 -83.2883 161° South 454 522 33,000  Level Jacksonville Center
Wed 04:23:15 PM 28.6919 -83.2428 163° South 465 535 33,000  Level Jacksonville Center
Wed 04:24:15 PM 28.5711 -83.1997 163° South 465 535 33,000 -650 Level Jacksonville Center
Wed 04:25:15 PM 28.4522 -83.1569 162° South 459 528 31,700 -1,050 Descending Jacksonville Center
Wed 04:26:15 PM 28.3564 -83.0883 148° Southeast 440 506 30,900 -950 Descending Jacksonville Center
Wed 04:27:15 PM 28.2772 -83.0153 141° Southeast 398 458 29,800 -1,300 Descending Jacksonville Center
Wed 04:28:15 PM 28.1958 -82.9539 146° Southeast 373 429 28,300 -1,747 Descending Jacksonville Center
Wed 04:28:34 PM 28.1564 -82.9569 184° South 364 419 27,500 -987 Descending Miami Center
Wed 04:29:34 PM 28.0669 -83.0064 206° Southwest 320 368 27,000 -250 Descending Miami Center
Wed 04:30:34 PM 27.9539 -82.9672 163° South 370 426 27,000 -350 Level Miami Center
Wed 04:31:34 PM 27.8494 -82.9172 157° South 415 478 26,300 -1,200 Descending Miami Center
Wed 04:32:34 PM 27.7186 -82.8539 157° South 451 519 24,600 -1,750 Descending Miami Center
Wed 04:33:34 PM 27.6039 -82.8033 159° South 451 519 22,800 -1,750 Descending Miami Center
Wed 04:34:34 PM 27.4933 -82.7556 159° South 438 504 21,100 -900 Descending Miami Center
Wed 04:35:34 PM 27.3950 -82.7108 158° South 429 494 21,000 -50 Descending Miami Center
Wed 04:36:34 PM 27.2822 -82.6583 158° South 429 494 21,000 -1,150 Level Miami Center
Wed 04:37:34 PM 27.1828 -82.5881 148° Southeast 419 482 18,700 -2,300 Descending Miami Center
Wed 04:38:34 PM 27.0897 -82.5158 145° Southeast 414 476 16,400 -2,350 Descending Miami Center
Wed 04:39:34 PM 26.9986 -82.4461 146° Southeast 409 471 14,000 -2,450 Descending Miami Center
Wed 04:40:34 PM 26.9072 -82.3742 145° Southeast 409 471 11,500 -1,500 Descending Miami Center
Wed 04:41:34 PM 26.8222 -82.3075 145° Southeast 398 458 11,000 -250 Descending Miami Center
Wed 04:42:34 PM 26.7350 -82.2358 144° Southeast 392 451 11,000 -400 Level Miami Center
Wed 04:43:34 PM 26.6519 -82.1717 145° Southeast 387 445 10,200 -500 Descending Miami Center
Wed 04:44:34 PM 26.5686 -82.1053 145° Southeast 376 433 10,000 -100 Descending Miami Center
Wed 04:45:34 PM 26.4875 -82.0414 145° Southeast 369 425 10,000 -150 Level Miami Center
Wed 04:46:34 PM 26.4192 -81.9689 136° Southeast 362 417 9,700 -1,300 Descending Miami Center
Wed 04:47:34 PM 26.3972 -81.8797 105° East 321 369 7,400 -2,300 Descending Miami Center
Wed 04:49:00 PM 26.5254 -81.7606 50° Northeast  Level FlightAware Approximate
Wed 04:56:00 PM 26.5333 -81.7500 50° Northeast  Level FlightAware Approximate
Wed 04:57:00 PM 26.5362 -81.7552 50° Northeast  Level Estimated
Wed 04:58:00 PM 26.5333 -81.7500 50° Northeast  Level FlightAware Approximate
Wed 04:59:00 PM 26.5362 -81.7552 50° Northeast  Level Estimated
Wed 05:00:00 PM 26.5333 -81.7500 50° Northeast  Level FlightAware Approximate
Wed 05:01:00 PM 26.5362 -81.7552 50° Northeast  Level Estimated
Wed 05:02:00 PM 26.5333 -81.7500 50° Northeast  Level FlightAware Approximate
Wed 05:03:00 PM 26.5362 -81.7552 50° Northeast  Level Estimated
Wed 05:04:00 PM 26.5333 -81.7500 50° Northeast  Level FlightAware Approximate

Login

Don't have an account? Register now (free) for customized features, flight alerts, and more!